createdAt,value
2023-01-10T00:00:12.213Z,6.69
2023-01-10T00:02:41.059Z,6.68
2023-01-10T00:05:10.473Z,6.67
2023-01-10T00:07:39.423Z,6.65
2023-01-10T00:10:10.784Z,6.67
2023-01-10T00:12:49.612Z,6.65
2023-01-10T00:15:18.434Z,6.61
2023-01-10T00:17:47.190Z,6.59
2023-01-10T00:20:16.418Z,6.58
2023-01-10T00:22:45.556Z,6.55
2023-01-10T00:25:15.891Z,6.54
2023-01-10T00:27:45.492Z,6.54
2023-01-10T00:30:15.106Z,6.51
2023-01-10T00:32:44.768Z,6.50
2023-01-10T00:35:14.237Z,6.51
2023-01-10T00:37:43.091Z,6.50
2023-01-10T00:40:13.247Z,6.47
2023-01-10T00:42:53.275Z,6.44
2023-01-10T00:45:23.032Z,6.42
2023-01-10T00:47:51.850Z,6.39
2023-01-10T00:50:20.839Z,6.37
2023-01-10T00:52:49.991Z,6.35
2023-01-10T00:55:18.871Z,6.32
2023-01-10T00:57:49.099Z,6.31
2023-01-10T01:00:18.378Z,6.29
2023-01-10T01:02:48.853Z,6.26
2023-01-10T01:05:17.753Z,6.25
2023-01-10T01:07:49.522Z,6.23
2023-01-10T01:10:29.522Z,6.21
2023-01-10T01:13:01.746Z,6.18
2023-01-10T01:15:30.555Z,6.20
2023-01-10T01:17:59.322Z,6.21
2023-01-10T01:20:29.381Z,6.18
2023-01-10T01:22:57.865Z,6.15
2023-01-10T01:25:26.840Z,6.07
2023-01-10T01:27:55.663Z,6.08
2023-01-10T01:30:25.888Z,6.08
2023-01-10T01:32:54.821Z,6.08
2023-01-10T01:35:23.814Z,6.07
2023-01-10T01:37:52.911Z,6.04
2023-01-10T01:40:23.878Z,6.04
2023-01-10T01:42:56.124Z,6.03
2023-01-10T01:45:38.648Z,6.02
2023-01-10T01:48:18.602Z,6.05
2023-01-10T01:50:54.665Z,6.03
2023-01-10T01:53:29.357Z,5.96
2023-01-10T01:56:02.794Z,6.00
2023-01-10T01:58:39.600Z,6.00
2023-01-10T02:01:09.977Z,5.99
2023-01-10T02:03:39.494Z,6.00
2023-01-10T02:06:09.013Z,5.98
2023-01-10T02:08:39.570Z,5.97
2023-01-10T02:11:11.171Z,5.99
2023-01-10T02:13:43.272Z,5.99
2023-01-10T02:16:13.895Z,5.99
2023-01-10T02:18:44.300Z,5.97
2023-01-10T02:21:41.986Z,5.97
2023-01-10T02:24:33.490Z,5.95
2023-01-10T02:27:28.516Z,5.89
2023-01-10T02:30:28.437Z,5.89
2023-01-10T02:33:05.791Z,5.88
2023-01-10T02:35:55.582Z,5.88
2023-01-10T02:38:36.999Z,5.86
2023-01-10T02:41:16.557Z,5.87
2023-01-10T02:43:48.531Z,5.87
2023-01-10T02:46:24.795Z,5.82
2023-01-10T02:48:56.252Z,5.83
2023-01-10T02:51:27.537Z,5.86
2023-01-10T02:54:02.461Z,5.84
2023-01-10T02:57:02.161Z,5.84
2023-01-10T02:59:55.251Z,5.84
2023-01-10T03:02:38.524Z,5.84
2023-01-10T03:05:19.421Z,5.81
2023-01-10T03:07:58.161Z,5.81
2023-01-10T03:10:34.016Z,5.80
2023-01-10T03:13:06.853Z,5.78
2023-01-10T03:15:39.234Z,5.74
2023-01-10T03:18:12.992Z,5.73
2023-01-10T03:20:47.872Z,5.73
2023-01-10T03:23:18.075Z,5.71
2023-01-10T03:25:48.497Z,5.73
2023-01-10T03:28:23.790Z,5.71
2023-01-10T03:30:56.012Z,5.69
2023-01-10T03:33:29.193Z,5.69
2023-01-10T03:36:10.279Z,5.72
2023-01-10T03:38:47.572Z,5.68
2023-01-10T03:41:23.973Z,5.69
2023-01-10T03:44:08.602Z,5.68
2023-01-10T03:46:43.325Z,5.66
2023-01-10T03:49:13.823Z,5.66
2023-01-10T03:51:45.848Z,5.67
2023-01-10T03:54:17.310Z,5.64
2023-01-10T03:56:47.713Z,5.63
2023-01-10T03:59:16.646Z,5.62
2023-01-10T04:01:45.682Z,5.59
2023-01-10T04:04:14.639Z,5.58
2023-01-10T04:06:44.794Z,5.55
2023-01-10T04:09:13.899Z,5.56
2023-01-10T04:11:42.560Z,5.56
2023-01-10T04:14:11.371Z,5.55
2023-01-10T04:16:40.094Z,5.54
2023-01-10T04:19:09.023Z,5.54
2023-01-10T04:21:37.700Z,5.52
2023-01-10T04:24:09.661Z,5.51
2023-01-10T04:26:38.486Z,5.52
2023-01-10T04:29:07.397Z,5.52
2023-01-10T04:31:36.294Z,5.53
2023-01-10T04:34:05.051Z,5.50
2023-01-10T04:36:33.943Z,5.46
2023-01-10T04:39:02.654Z,5.46
2023-01-10T04:41:33.019Z,5.45
2023-01-10T04:44:01.873Z,5.45
2023-01-10T04:46:30.524Z,5.40
2023-01-10T04:48:59.954Z,5.42
2023-01-10T04:51:29.601Z,5.42
2023-01-10T04:53:58.372Z,5.36
2023-01-10T04:56:27.422Z,5.38
2023-01-10T04:58:58.449Z,5.40
2023-01-10T05:01:27.612Z,5.39
2023-01-10T05:03:57.833Z,5.38
2023-01-10T05:06:26.777Z,5.36
2023-01-10T05:08:55.449Z,5.35
2023-01-10T05:11:24.220Z,5.32
2023-01-10T05:13:53.155Z,5.27
2023-01-10T05:16:24.532Z,5.28
2023-01-10T05:18:53.431Z,5.27
2023-01-10T05:21:22.318Z,5.27
2023-01-10T05:23:52.101Z,5.26
2023-01-10T05:26:23.219Z,5.26
2023-01-10T05:28:52.355Z,5.29
2023-01-10T05:31:22.811Z,5.27
2023-01-10T05:33:52.819Z,5.26
2023-01-10T05:36:22.191Z,5.25
2023-01-10T05:38:50.910Z,5.26
2023-01-10T05:41:20.100Z,5.25
2023-01-10T05:43:48.788Z,5.26
2023-01-10T05:46:17.805Z,5.27
2023-01-10T05:48:47.982Z,5.24
2023-01-10T05:51:16.859Z,5.27
2023-01-10T05:53:45.563Z,5.28
2023-01-10T05:56:14.561Z,5.26
2023-01-10T05:58:44.344Z,5.28
2023-01-10T06:01:16.331Z,5.29
2023-01-10T06:03:45.428Z,5.29
2023-01-10T06:06:15.938Z,5.29
2023-01-10T06:08:44.774Z,5.30
2023-01-10T06:11:13.439Z,5.32
2023-01-10T06:13:42.713Z,5.33
2023-01-10T06:16:11.453Z,5.34
2023-01-10T06:18:40.302Z,5.35
2023-01-10T06:21:08.992Z,5.35
2023-01-10T06:23:39.597Z,5.35
2023-01-10T06:26:08.863Z,5.36
2023-01-10T06:28:37.635Z,5.36
2023-01-10T06:31:06.721Z,5.37
2023-01-10T06:33:35.703Z,5.37
2023-01-10T06:36:04.551Z,5.37
2023-01-10T06:38:33.263Z,5.38
2023-01-10T06:41:13.328Z,5.39
2023-01-10T06:43:42.662Z,5.41
2023-01-10T06:46:11.404Z,5.42
2023-01-10T06:48:40.297Z,5.41
2023-01-10T06:51:09.064Z,5.40
2023-01-10T06:53:37.894Z,5.38
2023-01-10T06:56:09.942Z,5.37
2023-01-10T06:58:39.840Z,5.37
2023-01-10T07:01:08.597Z,5.37
2023-01-10T07:03:37.471Z,5.36
2023-01-10T07:06:10.280Z,5.37
2023-01-10T07:08:40.034Z,5.35
2023-01-10T07:11:10.949Z,5.36
2023-01-10T07:13:40.145Z,5.36
2023-01-10T07:16:11.546Z,5.38
2023-01-10T07:18:43.271Z,5.40
2023-01-10T07:21:12.623Z,5.39
2023-01-10T07:23:41.477Z,5.38
2023-01-10T07:26:17.981Z,5.42
2023-01-10T07:28:46.960Z,5.42
2023-01-10T07:31:16.668Z,5.41
2023-01-10T07:33:45.554Z,5.41
2023-01-10T07:36:14.339Z,5.41
2023-01-10T07:38:43.237Z,5.42
2023-01-10T07:41:13.479Z,5.44
2023-01-10T07:43:42.370Z,5.45
2023-01-10T07:46:12.551Z,5.46
2023-01-10T07:48:42.706Z,5.47
2023-01-10T07:51:11.701Z,5.47
2023-01-10T07:53:40.474Z,5.49
2023-01-10T07:56:09.891Z,5.46
2023-01-10T07:58:40.144Z,5.52
2023-01-10T08:01:09.356Z,5.55
2023-01-10T08:03:38.210Z,5.56
2023-01-10T08:06:10.542Z,5.56
2023-01-10T08:08:40.175Z,5.53
2023-01-10T08:11:09.159Z,5.56
2023-01-10T08:13:39.344Z,5.57
2023-01-10T08:16:09.219Z,5.59
2023-01-10T08:18:39.229Z,5.61
2023-01-10T08:21:08.105Z,5.63
2023-01-10T08:23:36.989Z,5.63
2023-01-10T08:26:06.139Z,5.64
2023-01-10T08:28:35.098Z,5.66
2023-01-10T08:31:09.429Z,5.65
2023-01-10T08:33:39.946Z,5.64
2023-01-10T08:36:16.629Z,5.66
2023-01-10T08:38:45.451Z,5.68
2023-01-10T08:41:14.626Z,5.68
2023-01-10T08:43:43.413Z,5.67
2023-01-10T08:46:13.530Z,5.68
2023-01-10T08:48:42.429Z,5.68
2023-01-10T08:51:11.527Z,5.69
2023-01-10T08:53:41.131Z,5.68
2023-01-10T08:56:10.613Z,5.72
2023-01-10T08:58:39.833Z,5.71
2023-01-10T09:01:09.195Z,5.73
2023-01-10T09:03:40.056Z,5.75
2023-01-10T09:06:09.682Z,5.76
2023-01-10T09:08:38.454Z,5.75
2023-01-10T09:11:07.548Z,5.73
2023-01-10T09:13:36.431Z,5.79
2023-01-10T09:16:06.020Z,5.82
2023-01-10T09:18:34.576Z,5.82
2023-01-10T09:21:05.822Z,5.84
2023-01-10T09:23:36.944Z,5.84
2023-01-10T09:26:09.133Z,5.84
2023-01-10T09:28:38.035Z,5.86
2023-01-10T09:31:09.263Z,5.86
2023-01-10T09:33:46.896Z,5.87
2023-01-10T09:36:17.711Z,5.88
2023-01-10T09:38:46.747Z,5.89
2023-01-10T09:41:38.546Z,5.92
2023-01-10T09:44:17.210Z,5.90
2023-01-10T09:46:55.617Z,5.91
2023-01-10T09:49:37.547Z,5.91
2023-01-10T09:52:21.672Z,5.92
2023-01-10T09:54:54.136Z,5.90
2023-01-10T09:57:24.975Z,5.91
2023-01-10T09:59:55.109Z,5.93
2023-01-10T10:02:32.306Z,5.92
2023-01-10T10:05:10.576Z,5.95
2023-01-10T10:07:41.134Z,5.95
2023-01-10T10:10:17.207Z,5.93
2023-01-10T10:12:53.434Z,5.96
2023-01-10T10:15:33.539Z,5.95
2023-01-10T10:18:15.368Z,5.94
2023-01-10T10:20:53.027Z,5.95
2023-01-10T10:23:46.544Z,5.97
2023-01-10T10:26:24.352Z,5.96
2023-01-10T10:29:17.836Z,5.99
2023-01-10T10:31:59.468Z,5.98
2023-01-10T10:34:37.062Z,5.98
2023-01-10T10:37:13.040Z,6.00
2023-01-10T10:39:47.249Z,6.00
2023-01-10T10:42:20.020Z,6.02
2023-01-10T10:44:54.552Z,6.03
2023-01-10T10:47:25.190Z,6.06
2023-01-10T10:50:04.066Z,6.07
2023-01-10T10:52:35.983Z,6.11
2023-01-10T10:55:13.631Z,6.12
2023-01-10T10:57:59.087Z,6.14
2023-01-10T11:00:30.294Z,6.13
2023-01-10T11:03:05.209Z,6.15
2023-01-10T11:05:39.142Z,6.19
2023-01-10T11:08:11.722Z,6.22
2023-01-10T11:10:44.618Z,6.23
2023-01-10T11:13:22.916Z,6.27
2023-01-10T11:15:54.078Z,6.28
2023-01-10T11:18:27.904Z,6.30
2023-01-10T11:21:00.400Z,6.33
2023-01-10T11:23:43.057Z,6.38
2023-01-10T11:26:26.951Z,6.39
2023-01-10T11:29:08.511Z,6.43
2023-01-10T11:31:38.606Z,6.46
2023-01-10T11:34:20.907Z,6.50
2023-01-10T11:37:00.048Z,6.55
2023-01-10T11:39:30.438Z,6.54
2023-01-10T11:42:30.002Z,6.54
2023-01-10T11:45:16.756Z,6.56
2023-01-10T11:47:49.563Z,6.57
2023-01-10T11:50:23.907Z,6.58
2023-01-10T11:52:53.536Z,6.59
2023-01-10T11:55:22.825Z,6.61
2023-01-10T11:58:07.507Z,6.65
2023-01-10T12:00:42.376Z,6.65
2023-01-10T12:03:22.705Z,6.66
2023-01-10T12:05:53.715Z,6.67
2023-01-10T12:08:29.030Z,6.68
2023-01-10T12:11:02.100Z,6.67
2023-01-10T12:13:45.421Z,6.67
2023-01-10T12:16:22.371Z,6.72
2023-01-10T12:18:53.099Z,6.75
2023-01-10T12:21:28.136Z,6.74
2023-01-10T12:24:01.009Z,6.76
2023-01-10T12:26:33.756Z,6.75
2023-01-10T12:29:10.614Z,6.80
2023-01-10T12:31:41.487Z,6.82
2023-01-10T12:34:20.443Z,6.84
2023-01-10T12:37:00.110Z,6.86
2023-01-10T12:39:33.698Z,6.86
2023-01-10T12:42:30.737Z,6.86
2023-01-10T12:45:06.386Z,6.88
2023-01-10T12:47:48.892Z,6.90
2023-01-10T12:50:23.942Z,6.92
2023-01-10T12:52:59.437Z,6.92
2023-01-10T12:55:34.063Z,6.91
2023-01-10T12:58:06.833Z,6.92
2023-01-10T13:00:47.815Z,6.89
2023-01-10T13:03:22.888Z,6.89
2023-01-10T13:05:53.525Z,6.90
2023-01-10T13:08:27.210Z,6.92
2023-01-10T13:10:59.874Z,6.94
2023-01-10T13:13:35.841Z,6.92
2023-01-10T13:16:29.286Z,6.95
2023-01-10T13:19:05.149Z,6.99
2023-01-10T13:21:35.788Z,7.03
2023-01-10T13:24:07.249Z,7.03
2023-01-10T13:26:48.955Z,7.03
2023-01-10T13:29:22.681Z,7.00
2023-01-10T13:31:57.684Z,7.00
2023-01-10T13:34:33.681Z,6.99
2023-01-10T13:37:06.426Z,6.98
2023-01-10T13:39:39.577Z,6.97
2023-01-10T13:42:32.695Z,6.96
2023-01-10T13:45:20.187Z,7.00
2023-01-10T13:48:25.777Z,6.98
2023-01-10T13:51:08.094Z,6.98
2023-01-10T13:53:55.340Z,7.01
2023-01-10T13:56:37.094Z,6.99
2023-01-10T13:59:21.585Z,6.96
2023-01-10T14:02:03.954Z,6.95
2023-01-10T14:04:39.138Z,6.93
2023-01-10T14:07:18.091Z,6.91
2023-01-10T14:09:49.783Z,6.85
2023-01-10T14:12:28.179Z,6.86
2023-01-10T14:15:01.252Z,6.86
2023-01-10T14:17:32.047Z,6.86
2023-01-10T14:20:08.189Z,6.83
2023-01-10T14:22:39.666Z,6.80
2023-01-10T14:25:19.118Z,6.79
2023-01-10T14:27:48.495Z,6.75
2023-01-10T14:30:21.406Z,6.69
2023-01-10T14:32:56.781Z,6.67
2023-01-10T14:35:34.238Z,6.69
2023-01-10T14:38:04.886Z,6.66
2023-01-10T14:40:41.955Z,6.66
2023-01-10T14:43:15.283Z,6.65
2023-01-10T14:45:53.126Z,6.64
2023-01-10T14:48:28.257Z,6.60
2023-01-10T14:51:10.524Z,6.60
2023-01-10T14:53:39.902Z,6.57
2023-01-10T14:56:21.069Z,6.54
2023-01-10T14:58:49.950Z,6.53
2023-01-10T15:01:26.219Z,6.50
2023-01-10T15:03:57.315Z,6.51
2023-01-10T15:06:27.907Z,6.50
2023-01-10T15:09:03.994Z,6.52
2023-01-10T15:11:34.401Z,6.50
2023-01-10T15:14:11.548Z,6.53
2023-01-10T15:16:43.453Z,6.52
2023-01-10T15:19:16.927Z,6.50
2023-01-10T15:21:48.886Z,6.51
2023-01-10T15:24:33.866Z,6.49
2023-01-10T15:27:06.352Z,6.50
2023-01-10T15:29:37.231Z,6.49
2023-01-10T15:32:11.891Z,6.48
2023-01-10T15:34:42.717Z,6.48
2023-01-10T15:37:23.234Z,6.51
2023-01-10T15:39:52.380Z,6.51
2023-01-10T15:42:22.976Z,6.51
2023-01-10T15:44:56.318Z,6.52
2023-01-10T15:47:41.813Z,6.51
2023-01-10T15:50:24.055Z,6.51
2023-01-10T15:52:57.736Z,6.51
2023-01-10T15:55:47.682Z,6.49
2023-01-10T15:58:25.663Z,6.47
2023-01-10T16:00:55.784Z,6.42
2023-01-10T16:03:29.833Z,6.47
2023-01-10T16:06:00.551Z,6.46
2023-01-10T16:08:35.135Z,6.43
2023-01-10T16:11:08.668Z,6.42
2023-01-10T16:13:37.794Z,6.40
2023-01-10T16:16:16.712Z,6.36
2023-01-10T16:18:45.616Z,6.34
2023-01-10T16:21:14.931Z,6.32
2023-01-10T16:23:47.336Z,6.31
2023-01-10T16:26:17.558Z,6.28
2023-01-10T16:28:46.268Z,6.25
2023-01-10T16:31:15.836Z,6.25
2023-01-10T16:33:45.853Z,6.24
2023-01-10T16:36:17.410Z,6.23
2023-01-10T16:38:47.856Z,6.22
2023-01-10T16:41:27.101Z,6.21
2023-01-10T16:43:55.884Z,6.21
2023-01-10T16:46:25.202Z,6.22
2023-01-10T16:48:55.622Z,6.21
2023-01-10T16:51:26.266Z,6.20
2023-01-10T16:53:56.774Z,6.21
2023-01-10T16:56:28.197Z,6.24
2023-01-10T16:58:57.785Z,6.23
2023-01-10T17:01:30.151Z,6.24
2023-01-10T17:03:59.710Z,6.23
2023-01-10T17:06:28.932Z,6.22
2023-01-10T17:08:59.116Z,6.22
2023-01-10T17:11:32.545Z,6.22
2023-01-10T17:14:02.047Z,6.25
2023-01-10T17:16:30.855Z,6.25
2023-01-10T17:18:59.629Z,6.26
2023-01-10T17:21:28.357Z,6.27
2023-01-10T17:23:58.556Z,6.29
2023-01-10T17:26:27.360Z,6.28
2023-01-10T17:28:56.871Z,6.28
2023-01-10T17:31:25.876Z,6.27
2023-01-10T17:33:54.589Z,6.26
2023-01-10T17:36:28.980Z,6.24
2023-01-10T17:39:00.145Z,6.24
2023-01-10T17:41:28.881Z,6.20
2023-01-10T17:43:57.545Z,6.19
2023-01-10T17:46:26.380Z,6.16
2023-01-10T17:48:55.120Z,6.15
2023-01-10T17:51:25.173Z,6.11
2023-01-10T17:53:56.356Z,6.07
2023-01-10T17:56:26.555Z,6.04
2023-01-10T17:58:55.139Z,6.00
2023-01-10T18:01:26.261Z,5.97
2023-01-10T18:03:55.427Z,5.95
2023-01-10T18:06:25.371Z,5.92
2023-01-10T18:08:54.798Z,5.85
2023-01-10T18:11:25.521Z,5.87
2023-01-10T18:13:55.974Z,5.85
2023-01-10T18:16:27.159Z,5.84
2023-01-10T18:18:57.604Z,5.81
2023-01-10T18:21:26.500Z,5.82
2023-01-10T18:23:57.116Z,5.82
2023-01-10T18:26:25.965Z,5.84
2023-01-10T18:28:56.030Z,5.86
2023-01-10T18:31:24.835Z,5.88
2023-01-10T18:33:53.887Z,5.92
2023-01-10T18:36:24.411Z,5.95
2023-01-10T18:38:53.953Z,5.98
2023-01-10T18:41:22.979Z,5.98
2023-01-10T18:43:51.790Z,5.97
2023-01-10T18:46:24.618Z,5.96
2023-01-10T18:48:54.287Z,5.96
2023-01-10T18:51:23.910Z,5.93
2023-01-10T18:53:54.237Z,5.93
2023-01-10T18:56:23.205Z,5.93
2023-01-10T18:58:51.899Z,5.92
2023-01-10T19:01:23.277Z,5.90
2023-01-10T19:03:52.633Z,5.88
2023-01-10T19:06:22.961Z,5.86
2023-01-10T19:08:52.482Z,5.84
2023-01-10T19:11:21.664Z,5.83
2023-01-10T19:13:54.091Z,5.83
2023-01-10T19:16:27.046Z,5.82
2023-01-10T19:18:58.013Z,5.81
2023-01-10T19:21:28.297Z,5.79
2023-01-10T19:24:01.693Z,5.80
2023-01-10T19:26:30.732Z,5.80
2023-01-10T19:28:59.471Z,5.79
2023-01-10T19:31:31.309Z,5.79
2023-01-10T19:34:01.730Z,5.80
2023-01-10T19:36:34.883Z,5.78
2023-01-10T19:39:05.513Z,5.77
2023-01-10T19:41:35.155Z,5.78
2023-01-10T19:44:04.893Z,5.78
2023-01-10T19:46:37.453Z,5.76
2023-01-10T19:49:09.147Z,5.73
2023-01-10T19:51:39.635Z,5.71
2023-01-10T19:54:10.070Z,5.69
2023-01-10T19:56:38.979Z,5.65
2023-01-10T19:59:08.772Z,5.64
2023-01-10T20:01:38.969Z,5.65
2023-01-10T20:04:07.927Z,5.67
2023-01-10T20:06:39.057Z,5.68
2023-01-10T20:09:08.991Z,5.67
2023-01-10T20:11:43.131Z,5.61
2023-01-10T20:14:14.307Z,5.64
2023-01-10T20:16:44.921Z,5.64
2023-01-10T20:19:13.898Z,5.63
2023-01-10T20:21:43.911Z,5.63
2023-01-10T20:24:16.927Z,5.64
2023-01-10T20:26:46.150Z,5.66
2023-01-10T20:29:15.321Z,5.64
2023-01-10T20:31:47.658Z,5.62
2023-01-10T20:34:16.702Z,5.61
2023-01-10T20:36:47.098Z,5.61
2023-01-10T20:39:17.239Z,5.59
2023-01-10T20:41:46.498Z,5.58
2023-01-10T20:44:15.208Z,5.57
2023-01-10T20:46:45.532Z,5.54
2023-01-10T20:49:14.458Z,5.55
2023-01-10T20:51:43.156Z,5.53
2023-01-10T20:54:12.873Z,5.54
2023-01-10T20:56:41.350Z,5.53
2023-01-10T20:59:10.108Z,5.53
2023-01-10T21:01:39.391Z,5.49
2023-01-10T21:04:09.569Z,5.46
2023-01-10T21:06:38.416Z,5.47
2023-01-10T21:09:07.785Z,5.45
2023-01-10T21:11:52.159Z,5.45
2023-01-10T21:14:25.765Z,5.40
2023-01-10T21:16:54.492Z,5.40
2023-01-10T21:19:25.296Z,5.38
2023-01-10T21:21:54.093Z,5.37
2023-01-10T21:24:25.317Z,5.32
2023-01-10T21:26:54.263Z,5.32
2023-01-10T21:29:23.036Z,5.31
2023-01-10T21:31:54.006Z,5.32
2023-01-10T21:34:24.451Z,5.31
2023-01-10T21:36:54.444Z,5.28
2023-01-10T21:39:23.099Z,5.27
2023-01-10T21:42:00.618Z,5.24
2023-01-10T21:44:29.442Z,5.23
2023-01-10T21:46:58.134Z,5.22
2023-01-10T21:49:28.380Z,5.21
2023-01-10T21:51:58.008Z,5.21
2023-01-10T21:54:26.438Z,5.24
2023-01-10T21:56:55.124Z,5.25
2023-01-10T21:59:24.466Z,5.27
2023-01-10T22:01:53.168Z,5.27
2023-01-10T22:04:22.822Z,5.27
2023-01-10T22:06:53.467Z,5.27
2023-01-10T22:09:22.359Z,5.27
2023-01-10T22:11:51.120Z,5.26
2023-01-10T22:14:19.976Z,5.26
2023-01-10T22:16:48.730Z,5.26
2023-01-10T22:19:17.857Z,5.26
2023-01-10T22:21:46.640Z,5.26
2023-01-10T22:24:17.346Z,5.27
2023-01-10T22:26:46.111Z,5.28
2023-01-10T22:29:16.358Z,5.27
2023-01-10T22:31:45.206Z,5.25
2023-01-10T22:34:14.160Z,5.25
2023-01-10T22:36:43.061Z,5.25
2023-01-10T22:39:12.195Z,5.25
2023-01-10T22:41:42.792Z,5.21
2023-01-10T22:44:19.697Z,5.22
2023-01-10T22:46:52.101Z,5.22
2023-01-10T22:49:21.527Z,5.22
2023-01-10T22:51:50.330Z,5.22
2023-01-10T22:54:19.138Z,5.22
2023-01-10T22:56:49.332Z,5.20
2023-01-10T23:01:56.793Z,5.19
2023-01-10T23:04:25.576Z,5.19
2023-01-10T23:06:56.924Z,5.19
2023-01-10T23:09:25.683Z,5.17
2023-01-10T23:11:55.767Z,5.14
2023-01-10T23:14:24.545Z,5.13
2023-01-10T23:16:53.167Z,5.14
2023-01-10T23:19:21.908Z,5.13
2023-01-10T23:21:51.586Z,5.13
2023-01-10T23:24:20.112Z,5.12
2023-01-10T23:26:51.293Z,5.10
2023-01-10T23:29:21.432Z,5.09
2023-01-10T23:31:51.259Z,5.07
2023-01-10T23:34:19.950Z,5.05
2023-01-10T23:36:48.763Z,5.02
2023-01-10T23:39:19.304Z,5.00
2023-01-10T23:41:48.124Z,4.97
2023-01-10T23:44:16.963Z,4.95
2023-01-10T23:46:47.184Z,4.96
2023-01-10T23:49:15.934Z,4.95
2023-01-10T23:51:44.522Z,4.93
2023-01-10T23:54:13.495Z,4.93
2023-01-10T23:56:42.115Z,4.92
2023-01-10T23:59:10.835Z,4.92
